Terminal Aerodrome Forecast
Issued by NWS

Home | Current Version | Previous Version | Text Only | Print | Product List | Glossary On
Versions: 1 2 3 4 5 6 7 8 9 10 11 12
000
FTUS42 KMLB 281720
TAFISM
TAF
KISM 281720Z 2818/2918 09012G17KT P6SM SCT050
      TEMPO 2818/2819 BKN050
     FM290200 07007KT P6SM SKC
     FM291500 07012KT P6SM SCT040=

USA.gov is the U.S. government's official web portal to all federal, state and local government web resources and services.